createdAt,value
2018-08-24T00:00:28.556Z,15.60
2018-08-24T00:02:58.944Z,17.17
2018-08-24T00:05:29.315Z,17.27
2018-08-24T00:07:59.692Z,17.47
2018-08-24T00:10:29.949Z,17.37
2018-08-24T00:13:00.409Z,16.47
2018-08-24T00:15:30.991Z,16.73
2018-08-24T00:18:01.393Z,17.30
2018-08-24T00:20:31.639Z,17.43
2018-08-24T00:23:02.029Z,16.37
2018-08-24T00:25:32.312Z,16.50
2018-08-24T00:28:02.992Z,14.50
2018-08-24T00:30:33.491Z,16.57
2018-08-24T00:33:03.963Z,16.10
2018-08-24T00:35:34.188Z,16.27
2018-08-24T00:38:04.561Z,15.67
2018-08-24T00:40:34.924Z,15.90
2018-08-24T00:43:05.184Z,16.97
2018-08-24T00:45:35.480Z,16.10
2018-08-24T00:48:05.916Z,17.80
2018-08-24T00:50:36.277Z,17.20
2018-08-24T00:53:06.795Z,16.37
2018-08-24T00:55:37.021Z,14.77
2018-08-24T00:58:07.437Z,14.60
2018-08-24T01:00:44.732Z,15.10
2018-08-24T01:03:15.396Z,15.20
2018-08-24T01:05:45.948Z,15.90
2018-08-24T01:08:16.409Z,16.37
2018-08-24T01:10:46.809Z,14.90
2018-08-24T01:13:17.208Z,14.70
2018-08-24T01:15:52.665Z,14.00
2018-08-24T01:18:54.680Z,13.90
2018-08-24T01:21:25.260Z,14.80
2018-08-24T01:23:55.680Z,14.70
2018-08-24T01:26:26.552Z,13.60
2018-08-24T01:28:56.900Z,13.90
2018-08-24T01:31:27.359Z,13.00
2018-08-24T01:33:57.961Z,12.63
2018-08-24T01:36:28.670Z,12.40
2018-08-24T01:38:59.153Z,12.37
2018-08-24T01:41:29.652Z,11.73
2018-08-24T01:43:59.879Z,12.10
2018-08-24T01:46:30.356Z,11.10
2018-08-24T01:49:00.796Z,10.60
2018-08-24T01:51:31.212Z,11.20
2018-08-24T01:54:02.371Z,12.20
2018-08-24T01:56:32.781Z,10.63
2018-08-24T01:59:03.169Z,10.70
2018-08-24T02:01:33.750Z,10.33
2018-08-24T02:04:04.066Z,11.43
2018-08-24T02:06:34.564Z,11.43
2018-08-24T02:09:07.440Z,10.63
2018-08-24T02:11:38.315Z,10.27
2018-08-24T02:14:11.920Z,10.40
2018-08-24T02:16:42.884Z,11.00
2018-08-24T02:19:15.675Z,10.03
2018-08-24T02:21:50.948Z,10.50
2018-08-24T02:24:21.288Z,10.27
2018-08-24T02:26:51.674Z,9.90
2018-08-24T02:29:22.139Z,10.83
2018-08-24T02:31:52.542Z,9.70
2018-08-24T02:34:22.864Z,9.70
2018-08-24T02:36:53.165Z,9.43
2018-08-24T02:39:23.523Z,10.30
2018-08-24T02:41:54.044Z,10.40
2018-08-24T02:44:24.505Z,10.10
2018-08-24T02:46:54.948Z,9.70
2018-08-24T02:49:25.313Z,10.70
2018-08-24T02:51:55.668Z,11.13
2018-08-24T02:54:26.177Z,10.10
2018-08-24T02:56:57.136Z,9.80
2018-08-24T02:59:27.591Z,9.80
2018-08-24T03:01:58.057Z,11.10
2018-08-24T03:04:28.635Z,10.40
2018-08-24T03:06:58.997Z,10.97
2018-08-24T03:09:29.444Z,10.00
2018-08-24T03:11:59.941Z,9.90
2018-08-24T03:14:30.253Z,10.10
2018-08-24T03:17:05.543Z,10.70
2018-08-24T03:19:35.819Z,10.60
2018-08-24T03:22:06.404Z,11.33
2018-08-24T03:24:36.964Z,11.00
2018-08-24T03:27:07.161Z,11.10
2018-08-24T03:29:37.677Z,11.30
2018-08-24T03:32:08.141Z,11.23
2018-08-24T03:34:38.612Z,11.00
2018-08-24T03:37:09.100Z,12.20
2018-08-24T03:39:39.585Z,11.47
2018-08-24T03:42:10.025Z,11.43
2018-08-24T03:44:40.315Z,10.60
2018-08-24T03:47:10.645Z,10.80
2018-08-24T03:49:41.010Z,11.97
2018-08-24T03:52:11.550Z,10.97
2018-08-24T03:54:42.084Z,10.57
2018-08-24T03:57:12.568Z,10.17
2018-08-24T03:59:42.915Z,10.37
2018-08-24T04:02:14.094Z,11.13
2018-08-24T04:04:44.535Z,10.17
2018-08-24T04:07:14.812Z,11.30
2018-08-24T04:09:45.308Z,10.47
2018-08-24T04:12:15.673Z,11.47
2018-08-24T04:14:46.180Z,11.50
2018-08-24T04:17:28.476Z,10.53
2018-08-24T04:19:58.889Z,10.20
2018-08-24T04:22:29.455Z,10.50
2018-08-24T04:24:59.839Z,9.60
2018-08-24T04:27:30.387Z,9.90
2018-08-24T04:30:00.778Z,8.60
2018-08-24T04:32:31.163Z,7.70
2018-08-24T04:35:01.626Z,7.10
2018-08-24T04:37:31.904Z,5.67
2018-08-24T04:40:02.517Z,5.10
2018-08-24T04:42:33.021Z,5.13
2018-08-24T04:45:03.423Z,4.70
2018-08-24T04:47:34.171Z,5.03
2018-08-24T04:50:04.755Z,4.07
2018-08-24T04:52:35.077Z,3.80
2018-08-24T04:55:05.808Z,3.50
2018-08-24T04:57:36.131Z,3.70
2018-08-24T05:00:09.028Z,3.53
2018-08-24T05:02:39.628Z,4.07
2018-08-24T05:05:10.592Z,3.13
2018-08-24T05:07:40.933Z,3.17
2018-08-24T05:10:11.614Z,2.00
2018-08-24T05:12:42.147Z,2.20
2018-08-24T05:15:13.519Z,2.10
2018-08-24T05:17:43.966Z,2.47
2018-08-24T05:20:14.334Z,2.33
2018-08-24T05:22:44.728Z,1.70
2018-08-24T05:25:15.128Z,2.00
2018-08-24T05:27:45.682Z,2.70
2018-08-24T05:30:16.248Z,2.17
2018-08-24T05:32:47.271Z,2.50
2018-08-24T05:35:17.812Z,2.03
2018-08-24T05:37:48.285Z,2.23
2018-08-24T05:40:18.875Z,1.43
2018-08-24T05:42:49.333Z,1.50
2018-08-24T05:45:19.731Z,1.30
2018-08-24T05:47:50.145Z,1.80
2018-08-24T05:50:20.874Z,1.70
2018-08-24T05:52:51.393Z,1.53
2018-08-24T05:55:22.153Z,1.70
2018-08-24T05:57:52.672Z,2.10
2018-08-24T06:00:28.030Z,1.83
2018-08-24T06:02:58.543Z,2.07
2018-08-24T06:05:29.232Z,1.97
2018-08-24T06:07:59.907Z,2.10
2018-08-24T06:10:30.289Z,2.77
2018-08-24T06:13:01.127Z,2.50
2018-08-24T06:15:31.456Z,2.63
2018-08-24T06:18:01.974Z,2.20
2018-08-24T06:20:32.388Z,3.53
2018-08-24T06:23:02.667Z,3.67
2018-08-24T06:25:33.179Z,3.73
2018-08-24T06:28:03.521Z,3.80
2018-08-24T06:30:33.905Z,4.17
2018-08-24T06:33:04.307Z,4.90
2018-08-24T06:35:34.784Z,4.33
2018-08-24T06:38:05.452Z,3.93
2018-08-24T06:40:35.965Z,4.30
2018-08-24T06:43:06.409Z,3.57
2018-08-24T06:45:36.720Z,3.57
2018-08-24T06:48:07.151Z,4.87
2018-08-24T06:50:37.643Z,5.40
2018-08-24T06:53:08.251Z,5.50
2018-08-24T06:55:38.788Z,4.70
2018-08-24T06:58:09.079Z,4.80
2018-08-24T07:00:39.517Z,4.63
2018-08-24T07:03:09.934Z,4.60
2018-08-24T07:05:40.551Z,5.10
2018-08-24T07:08:10.985Z,5.27
2018-08-24T07:10:41.345Z,5.10
2018-08-24T07:13:11.909Z,5.60
2018-08-24T07:15:42.412Z,5.70
2018-08-24T07:18:12.861Z,5.57
2018-08-24T07:20:43.324Z,5.47
2018-08-24T07:23:13.576Z,5.30
2018-08-24T07:25:44.031Z,5.33
2018-08-24T07:28:14.412Z,5.90
2018-08-24T07:30:44.783Z,5.37
2018-08-24T07:33:15.014Z,5.03
2018-08-24T07:35:45.325Z,5.27
2018-08-24T07:38:15.813Z,5.00
2018-08-24T07:40:46.276Z,5.13
2018-08-24T07:43:16.848Z,4.80
2018-08-24T07:45:47.161Z,5.20
2018-08-24T07:48:17.634Z,5.70
2018-08-24T07:50:48.066Z,5.77
2018-08-24T07:53:18.307Z,5.50
2018-08-24T07:55:48.655Z,5.20
2018-08-24T07:58:19.317Z,5.63
2018-08-24T08:00:49.724Z,5.50
2018-08-24T08:03:20.204Z,5.17
2018-08-24T08:05:50.583Z,5.77
2018-08-24T08:08:21.084Z,6.00
2018-08-24T08:10:51.548Z,6.10
2018-08-24T08:13:21.917Z,6.00
2018-08-24T08:15:52.258Z,5.73
2018-08-24T08:18:22.716Z,5.23
2018-08-24T08:20:52.953Z,5.80
2018-08-24T08:23:23.338Z,5.60
2018-08-24T08:25:53.754Z,6.83
2018-08-24T08:28:24.129Z,4.70
2018-08-24T08:30:54.407Z,5.13
2018-08-24T08:33:25.181Z,5.50
2018-08-24T08:35:56.073Z,5.87
2018-08-24T08:38:26.627Z,5.83
2018-08-24T08:40:57.033Z,5.10
2018-08-24T08:43:27.355Z,6.30
2018-08-24T08:45:57.613Z,5.77
2018-08-24T08:48:28.169Z,5.60
2018-08-24T08:50:58.539Z,6.80
2018-08-24T08:53:28.960Z,5.60
2018-08-24T08:55:59.545Z,5.97
2018-08-24T08:58:30.220Z,5.43
2018-08-24T09:01:00.702Z,5.50
2018-08-24T09:03:31.090Z,6.13
2018-08-24T09:06:01.606Z,5.60
2018-08-24T09:08:31.911Z,5.60
2018-08-24T09:11:02.286Z,5.37
2018-08-24T09:13:32.876Z,5.13
2018-08-24T09:16:04.040Z,5.30
2018-08-24T09:18:39.533Z,5.20
2018-08-24T09:21:14.887Z,5.60
2018-08-24T09:23:50.202Z,5.00
2018-08-24T09:26:25.713Z,5.17
2018-08-24T09:28:57.510Z,5.70
2018-08-24T09:31:30.628Z,5.03
2018-08-24T09:34:00.895Z,5.07
2018-08-24T09:36:31.381Z,5.60
2018-08-24T09:39:01.953Z,5.83
2018-08-24T09:41:32.343Z,5.70
2018-08-24T09:44:02.799Z,6.30
2018-08-24T09:46:38.136Z,5.77
2018-08-24T09:49:13.670Z,5.60
2018-08-24T09:51:44.277Z,5.17
2018-08-24T09:54:14.672Z,6.10
2018-08-24T09:56:45.223Z,5.43
2018-08-24T09:59:15.552Z,5.07
2018-08-24T10:01:51.208Z,5.17
2018-08-24T10:04:26.560Z,5.17
2018-08-24T10:07:01.994Z,5.20
2018-08-24T10:09:32.511Z,6.13
2018-08-24T10:12:02.871Z,5.20
2018-08-24T10:14:33.173Z,4.27
2018-08-24T10:17:03.553Z,4.87
2018-08-24T10:19:34.031Z,5.43
2018-08-24T10:22:04.450Z,5.00
2018-08-24T10:24:34.875Z,4.50
2018-08-24T10:27:05.334Z,5.27
2018-08-24T10:29:35.754Z,5.30
2018-08-24T10:32:06.395Z,4.73
2018-08-24T10:34:36.788Z,4.70
2018-08-24T10:37:07.352Z,4.80
2018-08-24T10:39:37.830Z,5.20
2018-08-24T10:42:08.264Z,5.40
2018-08-24T10:44:38.708Z,4.57
2018-08-24T10:47:09.208Z,4.60
2018-08-24T10:49:39.736Z,4.80
2018-08-24T10:52:10.001Z,5.17
2018-08-24T10:54:40.378Z,5.57
2018-08-24T10:57:11.036Z,7.40
2018-08-24T10:59:42.645Z,8.87
2018-08-24T11:02:13.022Z,10.40
2018-08-24T11:04:43.452Z,9.40
2018-08-24T11:07:13.942Z,10.03
2018-08-24T11:09:44.261Z,11.20
2018-08-24T11:12:14.845Z,11.40
2018-08-24T11:14:45.241Z,10.27
2018-08-24T11:17:15.657Z,9.37
2018-08-24T11:19:46.096Z,9.53
2018-08-24T11:22:16.577Z,9.40
2018-08-24T11:24:46.984Z,9.30
2018-08-24T11:27:17.488Z,10.73
2018-08-24T11:29:47.920Z,11.07
2018-08-24T11:32:18.367Z,11.30
2018-08-24T11:34:48.731Z,12.67
2018-08-24T11:37:19.315Z,12.07
2018-08-24T11:39:49.735Z,12.03
2018-08-24T11:42:20.088Z,11.73
2018-08-24T11:44:50.452Z,12.30
2018-08-24T11:47:21.185Z,12.10
2018-08-24T11:49:52.451Z,13.53
2018-08-24T11:52:23.507Z,13.90
2018-08-24T11:54:53.950Z,13.27
2018-08-24T11:57:24.511Z,14.20
2018-08-24T11:59:54.820Z,12.77
2018-08-24T12:02:25.264Z,12.83
2018-08-24T12:04:55.808Z,12.87
2018-08-24T12:07:26.213Z,14.10
2018-08-24T12:09:56.766Z,13.00
2018-08-24T12:12:27.189Z,12.10
2018-08-24T12:14:58.027Z,10.93
2018-08-24T12:17:35.223Z,10.60
2018-08-24T12:20:06.254Z,10.30
2018-08-24T12:22:36.815Z,10.50
2018-08-24T12:25:07.511Z,9.93
2018-08-24T12:27:38.176Z,10.50
2018-08-24T12:30:08.785Z,9.70
2018-08-24T12:32:39.380Z,9.90
2018-08-24T12:35:10.052Z,11.00
2018-08-24T12:37:47.492Z,10.20
2018-08-24T12:40:17.992Z,9.87
2018-08-24T12:42:48.320Z,8.30
2018-08-24T12:45:19.060Z,6.83
2018-08-24T12:47:49.237Z,7.33
2018-08-24T12:50:19.600Z,8.13
2018-08-24T12:52:50.124Z,5.23
2018-08-24T12:55:20.668Z,3.83
2018-08-24T12:57:51.164Z,4.10
2018-08-24T13:00:22.199Z,4.43
2018-08-24T13:02:52.749Z,4.10
2018-08-24T13:05:23.377Z,4.07
2018-08-24T13:07:53.928Z,3.60
2018-08-24T13:10:24.494Z,2.90
2018-08-24T13:12:55.001Z,2.97
2018-08-24T13:15:25.456Z,2.77
2018-08-24T13:17:55.836Z,2.90
2018-08-24T13:20:26.333Z,3.00
2018-08-24T13:22:56.734Z,2.20
2018-08-24T13:25:27.288Z,2.70
2018-08-24T13:27:57.687Z,2.23
2018-08-24T13:30:28.021Z,2.23
2018-08-24T13:32:58.300Z,2.60
2018-08-24T13:35:28.933Z,3.07
2018-08-24T13:37:59.482Z,3.73
2018-08-24T13:40:29.943Z,2.40
2018-08-24T13:43:00.257Z,2.67
2018-08-24T13:45:30.743Z,2.10
2018-08-24T13:48:01.313Z,2.40
2018-08-24T13:50:31.692Z,2.40
2018-08-24T13:53:02.096Z,2.10
2018-08-24T13:55:32.936Z,2.33
2018-08-24T13:58:03.477Z,2.00
2018-08-24T14:00:33.692Z,1.47
2018-08-24T14:03:04.218Z,2.10
2018-08-24T14:05:34.697Z,1.77
2018-08-24T14:08:05.203Z,2.03
2018-08-24T14:10:35.655Z,1.67
2018-08-24T14:13:05.963Z,1.77
2018-08-24T14:15:36.301Z,1.60
2018-08-24T14:18:06.804Z,1.50
2018-08-24T14:20:37.304Z,2.17
2018-08-24T14:23:07.773Z,1.63
2018-08-24T14:25:38.221Z,1.60
2018-08-24T14:28:08.533Z,2.00
2018-08-24T14:30:38.994Z,1.80
2018-08-24T14:33:09.505Z,2.13
2018-08-24T14:35:39.972Z,1.53
2018-08-24T14:38:10.521Z,1.73
2018-08-24T14:40:41.168Z,2.27
2018-08-24T14:43:11.583Z,1.50
2018-08-24T14:45:42.096Z,1.90
2018-08-24T14:48:12.389Z,1.60
2018-08-24T14:50:42.931Z,1.80
2018-08-24T14:53:13.332Z,1.70
2018-08-24T14:55:43.822Z,1.50
2018-08-24T14:58:14.300Z,1.30
2018-08-24T15:00:44.889Z,1.63
2018-08-24T15:03:15.272Z,2.10
2018-08-24T15:05:46.114Z,1.33
2018-08-24T15:08:16.419Z,1.40
2018-08-24T15:10:46.916Z,1.60
2018-08-24T15:13:17.412Z,1.10
2018-08-24T15:15:47.856Z,1.53
2018-08-24T15:18:18.054Z,1.50
2018-08-24T15:20:48.509Z,1.60
2018-08-24T15:23:18.819Z,1.30
2018-08-24T15:25:49.187Z,1.50
2018-08-24T15:28:19.373Z,1.90
2018-08-24T15:30:49.819Z,1.70
2018-08-24T15:33:20.317Z,1.70
2018-08-24T15:35:50.778Z,1.70
2018-08-24T15:38:21.144Z,1.40
2018-08-24T15:40:51.604Z,1.43
2018-08-24T15:43:22.096Z,1.33
2018-08-24T15:45:52.712Z,1.57
2018-08-24T15:48:23.172Z,1.57
2018-08-24T15:50:53.813Z,1.10
2018-08-24T15:53:24.920Z,1.57
2018-08-24T15:55:55.374Z,1.33
2018-08-24T15:58:25.877Z,1.87
2018-08-24T16:00:56.340Z,1.53
2018-08-24T16:03:26.713Z,1.43
2018-08-24T16:05:57.084Z,1.60
2018-08-24T16:08:27.368Z,1.93
2018-08-24T16:10:57.803Z,2.40
2018-08-24T16:13:28.156Z,1.77
2018-08-24T16:15:58.392Z,1.87
2018-08-24T16:18:28.696Z,1.30
2018-08-24T16:20:59.071Z,1.50
2018-08-24T16:23:29.396Z,1.20
2018-08-24T16:25:59.925Z,1.67
2018-08-24T16:28:55.731Z,1.40
2018-08-24T16:31:26.160Z,1.73
2018-08-24T16:33:56.459Z,1.47
2018-08-24T16:36:26.921Z,1.30
2018-08-24T16:38:57.300Z,1.60
2018-08-24T16:41:27.799Z,1.40
2018-08-24T16:43:58.053Z,1.30
2018-08-24T16:46:28.660Z,1.60
2018-08-24T16:48:59.025Z,1.43
2018-08-24T16:51:29.537Z,1.27
2018-08-24T16:54:00.021Z,1.30
2018-08-24T16:56:30.343Z,1.30
2018-08-24T16:59:00.645Z,1.30
2018-08-24T17:01:31.208Z,1.40
2018-08-24T17:04:01.743Z,1.20
2018-08-24T17:06:32.194Z,1.30
2018-08-24T17:09:02.737Z,1.40
2018-08-24T17:11:33.131Z,1.47
2018-08-24T17:14:03.540Z,1.40
2018-08-24T17:16:34.119Z,1.50
2018-08-24T17:19:04.549Z,1.40
2018-08-24T17:21:35.019Z,1.57
2018-08-24T17:24:05.711Z,1.43
2018-08-24T17:26:36.144Z,1.30
2018-08-24T17:29:06.820Z,0.97
2018-08-24T17:31:37.196Z,1.57
2018-08-24T17:34:07.653Z,1.53
2018-08-24T17:36:38.166Z,1.30
2018-08-24T17:39:11.809Z,1.50
2018-08-24T17:41:42.395Z,1.37
2018-08-24T17:44:13.076Z,1.50
2018-08-24T17:46:43.574Z,1.50
2018-08-24T17:49:13.815Z,1.53
2018-08-24T17:51:44.117Z,1.27
2018-08-24T17:54:14.619Z,1.33
2018-08-24T17:56:45.056Z,1.37
2018-08-24T17:59:15.612Z,1.67
2018-08-24T18:01:46.113Z,1.03
2018-08-24T18:04:16.689Z,1.37
2018-08-24T18:06:47.035Z,1.23
2018-08-24T18:09:17.420Z,1.23
2018-08-24T18:11:47.878Z,1.53
2018-08-24T18:14:18.251Z,1.67
2018-08-24T18:16:48.739Z,1.20
2018-08-24T18:19:19.143Z,1.80
2018-08-24T18:21:49.484Z,1.40
2018-08-24T18:24:19.863Z,1.43
2018-08-24T18:26:50.461Z,1.20
2018-08-24T18:29:20.828Z,1.90
2018-08-24T18:31:51.212Z,1.50
2018-08-24T18:34:21.674Z,1.70
2018-08-24T18:36:52.202Z,1.43
2018-08-24T18:39:22.555Z,2.07
2018-08-24T18:41:52.945Z,1.40
2018-08-24T18:44:23.313Z,1.77
2018-08-24T18:46:53.691Z,1.30
2018-08-24T18:49:24.636Z,1.03
2018-08-24T18:51:55.039Z,1.57
2018-08-24T18:54:26.784Z,1.27
2018-08-24T18:56:57.274Z,1.80
2018-08-24T18:59:27.728Z,1.77
2018-08-24T19:01:58.219Z,1.40
2018-08-24T19:04:28.728Z,1.33
2018-08-24T19:06:59.071Z,1.80
2018-08-24T19:09:29.498Z,1.10
2018-08-24T19:12:04.948Z,1.90
2018-08-24T19:14:35.373Z,1.80
2018-08-24T19:17:20.664Z,1.50
2018-08-24T19:19:55.984Z,1.73
2018-08-24T19:22:36.768Z,1.30
2018-08-24T19:25:10.264Z,1.40
2018-08-24T19:27:45.816Z,1.27
2018-08-24T19:30:27.095Z,1.80
2018-08-24T19:33:01.457Z,2.37
2018-08-24T19:35:32.341Z,1.70
2018-08-24T19:38:02.927Z,1.70
2018-08-24T19:41:13.355Z,2.10
2018-08-24T19:43:44.653Z,2.10
2018-08-24T19:46:15.024Z,1.37
2018-08-24T19:48:50.550Z,1.67
2018-08-24T19:51:33.314Z,1.93
2018-08-24T19:54:40.973Z,1.50
2018-08-24T19:57:16.417Z,1.50
2018-08-24T19:59:59.113Z,2.00
2018-08-24T20:02:29.655Z,1.50
2018-08-24T20:04:59.967Z,1.53
2018-08-24T20:07:35.523Z,1.40
2018-08-24T20:10:10.684Z,1.73
2018-08-24T20:12:52.583Z,1.63
2018-08-24T20:15:35.461Z,1.20
2018-08-24T20:18:05.979Z,1.23
2018-08-24T20:20:36.487Z,1.20
2018-08-24T20:23:07.075Z,1.27
2018-08-24T20:25:37.914Z,1.30
2018-08-24T20:28:08.446Z,2.10
2018-08-24T20:30:38.912Z,1.63
2018-08-24T20:33:09.703Z,1.40
2018-08-24T20:35:40.368Z,1.43
2018-08-24T20:38:11.062Z,1.40
2018-08-24T20:40:41.551Z,1.67
2018-08-24T20:43:11.963Z,1.40
2018-08-24T20:45:42.272Z,1.10
2018-08-24T20:48:12.596Z,1.73
2018-08-24T20:50:43.053Z,1.53
2018-08-24T20:53:13.496Z,1.73
2018-08-24T20:55:43.789Z,1.30
2018-08-24T20:58:14.146Z,1.47
2018-08-24T21:00:44.540Z,1.67
2018-08-24T21:03:15.008Z,1.50
2018-08-24T21:05:45.331Z,1.50
2018-08-24T21:08:15.771Z,1.67
2018-08-24T21:10:46.303Z,1.60
2018-08-24T21:13:16.718Z,1.33
2018-08-24T21:15:47.052Z,2.30
2018-08-24T21:18:17.387Z,1.40
2018-08-24T21:20:48.955Z,1.20
2018-08-24T21:23:19.460Z,1.80
2018-08-24T21:25:49.891Z,1.50
2018-08-24T21:28:20.204Z,1.60
2018-08-24T21:30:50.560Z,1.70
2018-08-24T21:33:20.868Z,2.30
2018-08-24T21:35:51.211Z,2.10
2018-08-24T21:38:21.783Z,1.77
2018-08-24T21:40:52.145Z,2.10
2018-08-24T21:43:22.609Z,1.77
2018-08-24T21:45:53.018Z,1.67
2018-08-24T21:48:23.889Z,1.90
2018-08-24T21:50:54.285Z,1.53
2018-08-24T21:53:24.847Z,2.20
2018-08-24T21:55:55.152Z,1.83
2018-08-24T21:58:25.591Z,1.50
2018-08-24T22:00:55.992Z,1.80
2018-08-24T22:03:26.271Z,1.47
2018-08-24T22:05:56.672Z,1.50
2018-08-24T22:08:27.041Z,1.83
2018-08-24T22:10:57.675Z,2.10
2018-08-24T22:13:27.988Z,1.30
2018-08-24T22:15:58.165Z,1.50
2018-08-24T22:18:28.533Z,1.27
2018-08-24T22:20:58.997Z,1.33
2018-08-24T22:23:29.499Z,1.57
2018-08-24T22:25:59.860Z,1.30
2018-08-24T22:28:30.115Z,1.40
2018-08-24T22:31:00.487Z,1.73
2018-08-24T22:33:30.862Z,1.30
2018-08-24T22:36:01.367Z,2.00
2018-08-24T22:38:31.955Z,1.63
2018-08-24T22:41:02.341Z,1.40
2018-08-24T22:43:35.560Z,1.80
2018-08-24T22:46:06.614Z,1.87
2018-08-24T22:48:37.058Z,1.67
2018-08-24T22:51:07.578Z,1.80
2018-08-24T22:53:37.960Z,2.10
2018-08-24T22:56:08.443Z,1.77
2018-08-24T22:58:38.754Z,1.50
2018-08-24T23:01:09.397Z,1.60
2018-08-24T23:03:39.875Z,2.10
2018-08-24T23:06:10.271Z,1.80
2018-08-24T23:08:40.604Z,1.90
2018-08-24T23:11:11.039Z,1.83
2018-08-24T23:13:41.479Z,1.50
2018-08-24T23:16:11.955Z,1.73
2018-08-24T23:18:42.227Z,1.30
2018-08-24T23:21:12.597Z,1.53
2018-08-24T23:23:43.056Z,1.60
2018-08-24T23:26:13.503Z,1.40
2018-08-24T23:28:43.827Z,1.73
2018-08-24T23:31:14.192Z,1.60
2018-08-24T23:33:44.600Z,1.70
2018-08-24T23:36:15.279Z,1.60
2018-08-24T23:38:45.800Z,2.10
2018-08-24T23:41:16.022Z,1.60
2018-08-24T23:43:46.522Z,1.73
2018-08-24T23:46:17.014Z,1.90
2018-08-24T23:48:47.441Z,1.90
2018-08-24T23:51:17.965Z,1.87
2018-08-24T23:53:48.549Z,1.83
2018-08-24T23:56:18.720Z,1.60
2018-08-24T23:58:49.203Z,1.70
